Time;durP1;ratioP1;P1;durP2;ratioP2;P2;SDS_P1;SDS_P2;PMS_P1;PMS_P2;Temp;Humidity;BMP_temperature;BMP_pressure;BME280_temperature;BME280_humidity;BME280_pressure;Samples;Min_cycle;Max_cycle;Signal;HPM_P1;HPM_P2
2024/03/21 00:00:11;;;;;;;;;;;;;;;0.44;67.22;99635.29;105697;1256;96691;-79
2024/03/21 00:02:59;;;;;;;29.40;15.00;;;;;;;0.41;67.31;99636.92;105446;1257;96616;-81
2024/03/21 00:05:28;;;;;;;32.90;15.50;;;;;;;0.40;67.42;99634.33;105797;1258;108794;-81
2024/03/21 00:07:55;;;;;;;32.20;15.90;;;;;;;0.42;67.45;99635.00;106038;1256;96626;-81
2024/03/21 00:10:23;;;;;;;31.60;16.90;;;;;;;0.43;67.47;99635.14;106670;1253;96618;-81
2024/03/21 00:12:50;;;;;;;36.00;18.50;;;;;;;0.41;67.33;99633.27;105763;1256;96567;-80
2024/03/21 00:15:17;;;;;;;38.10;16.60;;;;;;;0.37;67.30;99633.55;105884;1257;96659;-81
2024/03/21 00:17:45;;;;;;;33.40;17.70;;;;;;;0.31;67.14;99631.73;106105;1254;97624;-80
2024/03/21 00:20:14;;;;;;;33.40;17.70;;;;;;;0.26;67.41;99627.48;105929;1253;97529;-81
2024/03/21 00:22:44;;;;;;;38.10;18.20;;;;;;;0.30;67.37;99627.75;106005;1256;107524;-81
2024/03/21 00:25:13;;;;;;;35.50;18.80;;;;;;;0.30;67.41;99628.27;105958;1256;96615;-81
2024/03/21 00:27:40;;;;;;;37.80;18.60;;;;;;;0.28;67.51;99627.09;106520;1256;96605;-81
2024/03/21 00:30:08;;;;;;;46.00;20.30;;;;;;;0.30;67.43;99624.45;106223;1254;96754;-81
2024/03/21 00:32:34;;;;;;;41.70;20.20;;;;;;;0.29;67.58;99623.23;105896;1268;97562;-81
2024/03/21 00:35:01;;;;;;;37.10;18.30;;;;;;;0.26;67.16;99624.19;105675;1254;96721;-81
2024/03/21 00:37:28;;;;;;;39.60;18.40;;;;;;;0.18;67.15;99620.50;105815;1256;96687;-81
2024/03/21 00:39:54;;;;;;;40.10;19.90;;;;;;;0.12;67.26;99619.58;105693;1251;96627;-81
2024/03/21 00:42:22;;;;;;;;;;;;;;;0.10;67.28;99614.04;105933;1253;96681;-82
2024/03/21 00:44:49;;;;;;;33.50;18.40;;;;;;;0.08;67.60;99610.58;105896;1258;107594;-80
2024/03/21 00:47:15;;;;;;;46.80;21.20;;;;;;;0.10;67.69;99610.55;106574;1256;96598;-80
2024/03/21 00:49:42;;;;;;;43.50;22.10;;;;;;;0.11;67.38;99609.67;105754;1253;96547;-79
2024/03/21 00:52:08;;;;;;;;;;;;;;;0.11;67.61;99609.84;106122;1256;96634;-81
2024/03/21 00:54:36;;;;;;;42.80;19.20;;;;;;;0.10;67.60;99610.91;106110;1255;96520;-81
2024/03/21 00:57:02;;;;;;;47.40;22.00;;;;;;;0.06;67.48;99612.02;105909;1256;96804;-81
2024/03/21 00:59:29;;;;;;;46.90;22.90;;;;;;;0.05;67.64;99604.90;106249;1253;96594;-81
2024/03/21 01:01:55;;;;;;;49.60;22.80;;;;;;;0.03;67.45;99605.46;106387;1256;96718;-80
2024/03/21 01:04:22;;;;;;;50.40;23.30;;;;;;;-0.03;67.39;99601.75;105882;1256;96627;-81
2024/03/21 01:06:49;;;;;;;42.10;21.90;;;;;;;-0.07;67.50;99600.09;106288;1253;98238;-80
2024/03/21 01:09:16;;;;;;;48.80;22.90;;;;;;;-0.10;67.72;99594.39;105941;1251;96575;-81
2024/03/21 01:11:43;;;;;;;44.80;22.00;;;;;;;-0.08;67.65;99595.40;105785;1267;96674;-81
2024/03/21 01:14:09;;;;;;;;;;;;;;;-0.08;67.88;99595.55;106071;1253;96874;-80
2024/03/21 01:16:36;;;;;;;40.80;19.40;;;;;;;-0.07;67.93;99597.48;105994;1252;96607;-81
2024/03/21 01:19:02;;;;;;;;;;;;;;;-0.05;67.79;99596.73;106554;1256;96645;-80
2024/03/21 01:21:29;;;;;;;39.80;20.50;;;;;;;-0.08;67.74;99593.67;106146;1256;108516;-80
2024/03/21 01:23:56;;;;;;;42.20;19.80;;;;;;;-0.11;67.67;99592.16;105524;1267;96695;-80
2024/03/21 01:26:23;;;;;;;39.90;20.90;;;;;;;-0.13;67.68;99591.67;105867;1253;96602;-81
2024/03/21 01:28:51;;;;;;;36.80;19.30;;;;;;;-0.14;67.68;99591.69;105747;1257;96705;-81
2024/03/21 01:31:20;;;;;;;46.50;19.80;;;;;;;-0.13;67.64;99586.80;105879;1251;96617;-81
2024/03/21 01:33:50;;;;;;;43.50;21.00;;;;;;;-0.18;67.59;99585.48;105946;1256;109523;-80
2024/03/21 01:36:17;;;;;;;43.10;20.70;;;;;;;-0.21;67.84;99584.70;106364;1256;97577;-81
2024/03/21 01:38:44;;;;;;;41.30;20.20;;;;;;;-0.20;67.90;99580.81;106530;1253;96598;-80
2024/03/21 01:41:11;;;;;;;41.70;18.70;;;;;;;-0.20;67.70;99576.80;106008;1256;96520;-80
2024/03/21 01:43:39;;;;;;;36.90;17.60;;;;;;;-0.20;67.52;99577.36;106032;1250;97090;-81
2024/03/21 01:46:09;;;;;;;34.80;17.40;;;;;;;-0.21;67.90;99572.31;105955;1256;96496;-80
2024/03/21 01:48:40;;;;;;;32.70;16.70;;;;;;;-0.21;67.88;99572.50;106052;1256;97837;-80
2024/03/21 01:51:07;;;;;;;35.20;16.00;;;;;;;-0.22;67.78;99570.77;105895;1253;107596;-81
2024/03/21 01:53:34;;;;;;;;;;;;;;;-0.19;68.03;99568.77;105693;1267;96697;-80
2024/03/21 01:56:02;;;;;;;41.80;17.70;;;;;;;-0.19;68.07;99569.30;106837;1256;96572;-81
2024/03/21 01:58:29;;;;;;;40.40;19.50;;;;;;;-0.19;68.01;99567.73;105740;1256;96651;-81
2024/03/21 02:00:55;;;;;;;40.90;19.90;;;;;;;-0.18;67.93;99563.00;106030;1256;96604;-80
2024/03/21 02:03:22;;;;;;;;;;;;;;;-0.18;67.78;99563.54;106047;1253;96655;-81
2024/03/21 02:05:48;;;;;;;47.60;19.40;;;;;;;-0.21;67.66;99566.21;105760;1254;97526;-81
2024/03/21 02:08:15;;;;;;;38.90;19.20;;;;;;;-0.25;68.09;99565.60;105920;1253;108683;-81
2024/03/21 02:10:41;;;;;;;42.10;20.00;;;;;;;-0.22;67.99;99570.42;105993;1256;97118;-81
2024/03/21 02:13:09;;;;;;;48.90;22.10;;;;;;;-0.20;68.17;99572.46;106528;1265;96605;-82
2024/03/21 02:15:36;;;;;;;50.60;22.80;;;;;;;-0.17;68.34;99572.40;105913;1256;96684;-81
2024/03/21 02:18:03;;;;;;;44.30;22.90;;;;;;;-0.14;68.25;99575.48;105822;1258;96514;-81
2024/03/21 02:20:29;;;;;;;52.40;23.80;;;;;;;-0.12;68.29;99570.71;105723;1256;96693;-80
2024/03/21 02:22:56;;;;;;;48.30;21.60;;;;;;;-0.12;68.23;99569.15;105878;1256;107512;-81
2024/03/21 02:25:22;;;;;;;;;;;;;;;-0.13;68.23;99569.70;105641;1268;96726;-80
2024/03/21 02:27:49;;;;;;;39.80;18.30;;;;;;;-0.19;68.05;99569.48;106090;1256;97941;-81
2024/03/21 02:30:15;;;;;;;45.00;21.60;;;;;;;-0.21;68.20;99567.60;105948;1259;96694;-80
2024/03/21 02:32:42;;;;;;;;;;;;;;;-0.26;67.89;99566.67;106099;1259;96674;-80
2024/03/21 02:35:09;;;;;;;57.40;23.40;;;;;;;-0.34;67.72;99564.20;105504;1256;96626;-82
2024/03/21 02:37:35;;;;;;;48.60;23.20;;;;;;;-0.42;67.77;99564.37;105695;1256;96630;-80
2024/03/21 02:40:03;;;;;;;44.50;22.20;;;;;;;-0.47;68.12;99565.33;105669;1257;97998;-81
2024/03/21 02:42:29;;;;;;;56.40;25.90;;;;;;;-0.48;67.89;99563.09;105966;1255;96613;-81
2024/03/21 02:44:56;;;;;;;56.20;27.80;;;;;;;-0.52;67.81;99566.48;105775;1267;96594;-80
2024/03/21 02:47:22;;;;;;;65.00;30.10;;;;;;;-0.55;67.79;99563.91;105713;1256;96626;-80
2024/03/21 02:49:50;;;;;;;54.50;26.60;;;;;;;-0.59;67.92;99559.11;106531;1257;110029;-80
2024/03/21 02:52:17;;;;;;;54.90;27.00;;;;;;;-0.62;68.15;99559.00;105742;1253;96678;-80
2024/03/21 02:54:43;;;;;;;55.80;26.10;;;;;;;-0.59;68.56;99561.02;105504;1267;97121;-80
2024/03/21 02:57:11;;;;;;;55.20;26.80;;;;;;;-0.58;68.60;99559.09;105804;1256;96607;-81
2024/03/21 02:59:37;;;;;;;55.70;26.60;;;;;;;-0.56;68.39;99563.77;105717;1264;96722;-80
2024/03/21 03:02:04;;;;;;;;;;;;;;;-0.56;68.35;99563.42;105521;1267;98718;-80
2024/03/21 03:04:32;;;;;;;54.10;23.40;;;;;;;-0.58;68.37;99565.02;105593;1254;97975;-80
2024/03/21 03:06:59;;;;;;;55.30;26.70;;;;;;;-0.57;68.33;99567.44;106599;1256;97978;-80
2024/03/21 03:09:26;;;;;;;;;;;;;;;-0.61;68.16;99565.59;106111;1256;98692;-80
2024/03/21 03:11:52;;;;;;;55.80;25.90;;;;;;;-0.70;68.03;99569.24;105560;1256;111302;-79
2024/03/21 03:14:19;;;;;;;60.50;28.60;;;;;;;-0.77;68.07;99570.06;105433;1266;98435;-80
2024/03/21 03:16:45;;;;;;;69.50;30.70;;;;;;;-0.81;68.44;99571.35;105691;1267;98047;-80
2024/03/21 03:19:12;;;;;;;61.10;31.00;;;;;;;-0.80;68.26;99571.16;105724;1256;98060;-81
2024/03/21 03:21:39;;;;;;;66.90;31.30;;;;;;;-0.79;68.41;99572.71;105805;1256;98303;-80
2024/03/21 03:24:06;;;;;;;61.10;29.50;;;;;;;-0.80;68.24;99568.71;105947;1254;98816;-80
2024/03/21 03:26:32;;;;;;;67.30;33.30;;;;;;;-0.84;68.22;99567.60;106439;1261;97962;-78
2024/03/21 03:28:59;;;;;;;62.60;30.20;;;;;;;-0.85;68.36;99565.17;105714;1265;97950;-78
2024/03/21 03:31:26;;;;;;;64.90;29.30;;;;;;;-0.87;68.19;99564.15;105670;1256;97960;-78
2024/03/21 03:36:38;;;;;;;63.00;28.80;;;;;;;-0.87;68.56;99569.73;105576;1269;98829;-82
2024/03/21 03:39:04;;;;;;;70.30;31.20;;;;;;;-0.87;68.22;99570.09;105436;1267;99333;-80
2024/03/21 03:41:31;;;;;;;74.10;32.30;;;;;;;-0.94;68.14;99574.73;105877;1257;98089;-80
2024/03/21 03:43:58;;;;;;;67.40;28.70;;;;;;;-1.01;68.13;99575.36;106077;1256;98273;-79
2024/03/21 03:46:25;;;;;;;69.20;32.10;;;;;;;-1.08;67.98;99570.79;105628;1259;98057;-80
2024/03/21 03:48:51;;;;;;;67.60;31.70;;;;;;;-1.14;68.24;99574.88;105650;1255;107197;-82
2024/03/21 03:51:18;;;;;;;65.90;31.40;;;;;;;-1.17;67.98;99574.06;105423;1266;99271;-81
2024/03/21 03:53:44;;;;;;;75.50;34.90;;;;;;;-1.22;68.19;99574.66;105937;1255;98011;-81
2024/03/21 03:56:11;;;;;;;74.60;35.40;;;;;;;-1.26;67.91;99574.73;105936;1256;97947;-81
2024/03/21 03:58:38;;;;;;;66.60;33.30;;;;;;;-1.28;68.54;99572.85;105768;1256;97968;-82
2024/03/21 04:01:04;;;;;;;77.10;35.10;;;;;;;-1.24;68.27;99572.11;106216;1256;99261;-81
2024/03/21 04:03:31;;;;;;;69.50;31.90;;;;;;;-1.30;68.22;99578.80;106226;1257;97939;-81
2024/03/21 04:06:04;;;;;;;72.40;32.70;;;;;;;-1.33;68.10;99578.86;106006;1257;99282;-81
2024/03/21 04:08:31;;;;;;;64.80;31.00;;;;;;;-1.34;68.34;99580.60;105994;1257;97910;-81
2024/03/21 04:10:58;;;;;;;66.20;30.60;;;;;;;-1.32;68.59;99582.48;106126;1256;98563;-80
2024/03/21 04:13:25;;;;;;;77.40;32.70;;;;;;;-1.33;68.73;99578.48;105796;1257;98012;-81
2024/03/21 04:15:56;;;;;;;72.30;33.30;;;;;;;-1.30;68.65;99582.80;106031;1255;98000;-81
2024/03/21 04:18:23;;;;;;;61.90;30.30;;;;;;;-1.26;68.69;99583.44;106365;1257;111154;-80
2024/03/21 04:20:51;;;;;;;65.80;31.90;;;;;;;-1.22;68.96;99587.52;106196;1257;97868;-80
2024/03/21 04:23:19;;;;;;;61.60;29.60;;;;;;;-1.20;68.66;99587.51;105608;1260;107145;-80
2024/03/21 04:25:46;;;;;;;66.00;31.20;;;;;;;-1.18;68.85;99588.70;105830;1256;98566;-80
2024/03/21 04:28:12;;;;;;;68.20;31.70;;;;;;;-1.17;68.82;99588.33;105537;1272;97944;-79
2024/03/21 04:30:39;;;;;;;62.80;29.20;;;;;;;-1.15;68.80;99586.40;105683;1256;98083;-80
2024/03/21 04:33:05;;;;;;;70.20;31.80;;;;;;;-1.15;68.85;99585.69;106274;1256;97993;-80
2024/03/21 04:35:32;;;;;;;70.30;31.70;;;;;;;-1.14;68.94;99584.12;106188;1255;97961;-80
2024/03/21 04:38:00;;;;;;;60.00;29.20;;;;;;;-1.15;68.91;99586.74;105725;1266;98028;-80
2024/03/21 04:40:26;;;;;;;67.60;30.60;;;;;;;-1.17;68.75;99592.51;105752;1256;110836;-80
2024/03/21 04:42:53;;;;;;;67.50;30.30;;;;;;;-1.22;68.69;99592.59;105713;1256;98865;-80
2024/03/21 04:45:22;;;;;;;66.30;30.80;;;;;;;-1.25;69.04;99593.69;105839;1254;98740;-81
2024/03/21 04:47:49;;;;;;;62.20;29.80;;;;;;;-1.26;68.92;99597.53;105861;1267;98009;-80
2024/03/21 04:50:16;;;;;;;67.90;31.40;;;;;;;-1.24;68.80;99598.36;105930;1257;97974;-80
2024/03/21 04:52:42;;;;;;;74.80;31.50;;;;;;;-1.22;68.66;99601.81;106494;1256;97931;-80
2024/03/21 04:55:10;;;;;;;67.00;29.80;;;;;;;-1.24;68.67;99596.81;105713;1256;97980;-80
2024/03/21 04:57:37;;;;;;;67.80;33.70;;;;;;;-1.25;68.67;99594.22;105565;1257;98047;-79
2024/03/21 05:00:10;;;;;;;61.40;30.00;;;;;;;-1.23;68.81;99597.47;105306;1253;99285;-76
2024/03/21 05:02:37;;;;;;;65.90;29.60;;;;;;;-1.19;69.06;99599.33;105608;1265;97952;-81
2024/03/21 05:05:04;;;;;;;61.80;29.70;;;;;;;-1.13;69.28;99598.54;106100;1254;97955;-81
2024/03/21 05:07:32;;;;;;;65.00;28.20;;;;;;;-1.08;68.99;99601.77;105975;1252;98394;-78
2024/03/21 05:09:59;;;;;;;59.40;27.90;;;;;;;-1.06;69.22;99604.18;106618;1253;97942;-73
2024/03/21 05:12:25;;;;;;;;;;;;;;;-1.04;68.82;99609.53;106120;1252;98899;-73
2024/03/21 05:14:52;;;;;;;55.40;26.40;;;;;;;-1.07;69.06;99614.62;105592;1254;98008;-74
2024/03/21 05:17:20;;;;;;;56.80;27.00;;;;;;;-1.05;69.04;99614.44;105578;1257;97941;-74
2024/03/21 05:19:47;;;;;;;62.20;28.60;;;;;;;-1.07;68.69;99617.41;107455;1254;97947;-82
2024/03/21 05:22:15;;;;;;;58.30;27.80;;;;;;;-1.07;68.93;99615.84;108655;1254;96455;-78
2024/03/21 05:24:42;;;;;;;56.20;27.40;;;;;;;-1.05;68.72;99618.09;106571;1251;98871;-77
2024/03/21 05:27:09;;;;;;;58.20;28.10;;;;;;;-1.05;68.88;99620.35;107115;1251;97888;-77
2024/03/21 05:29:36;;;;;;;60.50;31.10;;;;;;;-1.01;68.76;99620.46;105786;1257;99210;-83
2024/03/21 05:32:03;;;;;;;68.00;31.60;;;;;;;-0.97;68.82;99621.09;105795;1251;99576;-78
2024/03/21 05:34:29;;;;;;;60.20;30.00;;;;;;;-0.93;69.10;99617.02;105360;1258;99164;-75
2024/03/21 05:36:56;;;;;;;;;;;;;;;-0.86;69.36;99620.91;105307;1253;98573;-75
2024/03/21 05:39:23;;;;;;;58.30;24.50;;;;;;;-0.78;69.54;99619.71;105149;1266;97951;-75
2024/03/21 05:41:49;;;;;;;56.40;27.10;;;;;;;-0.72;69.33;99618.05;105608;1256;98047;-75
2024/03/21 05:44:15;;;;;;;55.60;27.30;;;;;;;-0.67;69.45;99617.97;105171;1260;97953;-75
2024/03/21 05:46:42;;;;;;;62.30;27.90;;;;;;;-0.65;69.34;99616.01;105147;1255;97989;-74
2024/03/21 05:49:13;;;;;;;57.10;28.20;;;;;;;-0.62;69.41;99617.53;105442;1254;99219;-74
2024/03/21 05:51:40;;;;;;;60.10;26.50;;;;;;;-0.56;69.66;99617.41;105419;1256;97954;-74
2024/03/21 05:54:07;;;;;;;54.70;25.30;;;;;;;-0.51;69.81;99622.55;105200;1254;99479;-76
2024/03/21 05:56:36;;;;;;;56.60;25.50;;;;;;;-0.42;69.80;99618.75;105494;1254;97885;-74
2024/03/21 05:59:04;;;;;;;59.90;27.50;;;;;;;-0.37;69.97;99619.52;105556;1256;97955;-75
2024/03/21 06:01:34;;;;;;;64.00;27.60;;;;;;;-0.31;69.90;99614.51;108702;1251;111099;-77
2024/03/21 06:04:02;;;;;;;59.50;26.40;;;;;;;-0.22;70.03;99616.45;106135;1251;97955;-75
2024/03/21 06:06:28;;;;;;;57.00;27.90;;;;;;;-0.15;70.08;99613.85;108680;1252;108066;-75
2024/03/21 06:08:56;;;;;;;57.10;27.60;;;;;;;-0.07;70.04;99614.73;106801;1254;98051;-75
2024/03/21 06:11:23;;;;;;;55.80;26.80;;;;;;;0.03;70.08;99615.77;107408;1255;97957;-75
2024/03/21 06:13:50;;;;;;;;;;;;;;;0.13;70.00;99613.98;105287;1257;97958;-74
2024/03/21 06:16:16;;;;;;;56.00;25.90;;;;;;;0.23;69.98;99611.50;105460;1254;98101;-75
2024/03/21 06:18:43;;;;;;;56.20;24.90;;;;;;;0.33;69.98;99609.89;105436;1254;99204;-77
2024/03/21 06:21:09;;;;;;;58.10;25.70;;;;;;;0.44;70.01;99613.14;105489;1252;98837;-74
2024/03/21 06:23:36;;;;;;;48.00;22.90;;;;;;;0.54;70.07;99615.54;105949;1257;110972;-76
2024/03/21 06:26:03;;;;;;;57.70;27.00;;;;;;;0.65;70.29;99618.07;105315;1256;98227;-75
2024/03/21 06:28:30;;;;;;;61.10;29.50;;;;;;;0.73;70.34;99619.45;105432;1251;97974;-74
2024/03/21 06:30:56;;;;;;;;;;;;;;;0.81;70.71;99623.29;105008;1262;98045;-74
2024/03/21 06:33:23;;;;;;;59.80;27.10;;;;;;;0.86;70.67;99624.21;105486;1256;99329;-76
2024/03/21 06:35:49;;;;;;;59.60;29.70;;;;;;;0.92;70.85;99626.35;105407;1256;97993;-75
2024/03/21 06:38:16;;;;;;;;;;;;;;;0.96;71.15;99627.30;105208;1257;97958;-74
2024/03/21 06:40:42;;;;;;;61.60;28.40;;;;;;;1.03;70.95;99629.93;105390;1257;97948;-75
2024/03/21 06:43:09;;;;;;;58.90;27.40;;;;;;;1.10;71.30;99629.05;105445;1257;98018;-73
2024/03/21 06:45:37;;;;;;;55.10;26.80;;;;;;;1.16;71.37;99633.96;105408;1258;98962;-74
2024/03/21 06:48:03;;;;;;;52.70;26.50;;;;;;;1.23;71.10;99637.15;105455;1267;107630;-76
2024/03/21 06:50:31;;;;;;;54.60;27.40;;;;;;;1.30;71.37;99636.42;105197;1262;97982;-76
2024/03/21 06:52:58;;;;;;;49.80;25.10;;;;;;;1.35;71.58;99640.31;105507;1251;97968;-74
2024/03/21 06:55:25;;;;;;;47.50;23.20;;;;;;;1.39;71.25;99647.04;105434;1251;98041;-74
2024/03/21 06:57:56;;;;;;;47.30;25.00;;;;;;;1.45;71.36;99646.36;105118;1256;97963;-74
2024/03/21 07:00:27;;;;;;;48.70;24.60;;;;;;;1.51;71.73;99650.92;105279;1257;107564;-74
2024/03/21 07:02:57;;;;;;;46.00;23.50;;;;;;;1.55;71.79;99655.36;105363;1257;97986;-75
2024/03/21 07:05:24;;;;;;;52.10;25.70;;;;;;;1.61;72.04;99651.36;105369;1256;97897;-76
2024/03/21 07:07:54;;;;;;;47.70;24.50;;;;;;;1.65;72.24;99650.70;105287;1254;98067;-76
2024/03/21 07:10:21;;;;;;;43.50;22.70;;;;;;;1.73;72.20;99647.89;105430;1256;97990;-76
2024/03/21 07:12:47;;;;;;;49.40;23.20;;;;;;;1.80;71.88;99648.05;105083;1266;98062;-75
2024/03/21 07:15:16;;;;;;;47.00;23.80;;;;;;;1.88;72.12;99643.64;105345;1257;97937;-75
2024/03/21 07:17:43;;;;;;;47.70;22.80;;;;;;;1.96;72.21;99641.85;105412;1251;97947;-75
2024/03/21 07:20:13;;;;;;;44.70;21.90;;;;;;;2.04;72.57;99646.84;105307;1258;98243;-75
2024/03/21 07:22:40;;;;;;;47.20;23.70;;;;;;;2.12;72.69;99647.16;105224;1251;97958;-75
2024/03/21 07:25:07;;;;;;;;;;;;;;;2.18;72.96;99645.96;105394;1257;97941;-74
2024/03/21 07:27:33;;;;;;;54.50;23.20;;;;;;;2.24;72.51;99643.85;105461;1257;98060;-75
2024/03/21 07:30:00;;;;;;;;;;;;;;;2.32;72.65;99640.29;105347;1256;99252;-74
2024/03/21 07:32:26;;;;;;;44.50;18.60;;;;;;;2.40;72.41;99638.30;105505;1257;97961;-74
2024/03/21 07:34:53;;;;;;;49.30;23.60;;;;;;;2.48;73.30;99634.89;105320;1251;106717;-76
2024/03/21 07:37:20;;;;;;;49.00;23.80;;;;;;;2.58;72.73;99632.35;105385;1256;97985;-77
2024/03/21 07:39:47;;;;;;;47.10;23.80;;;;;;;2.71;72.90;99630.02;105227;1251;97949;-76
2024/03/21 07:42:14;;;;;;;44.90;24.20;;;;;;;2.82;73.05;99625.11;105443;1251;98043;-75
2024/03/21 07:44:40;;;;;;;43.00;20.80;;;;;;;2.94;73.07;99624.55;105412;1257;97976;-75
2024/03/21 07:47:07;;;;;;;46.10;20.20;;;;;;;3.08;73.55;99623.76;105616;1257;97989;-75
2024/03/21 07:49:33;;;;;;;43.60;21.70;;;;;;;3.22;73.71;99625.05;105094;1253;99384;-76
2024/03/21 07:52:01;;;;;;;38.70;19.10;;;;;;;3.37;73.58;99624.54;105510;1252;98384;-75
2024/03/21 07:54:32;;;;;;;38.20;18.10;;;;;;;3.56;73.48;99624.08;105403;1257;98140;-76
2024/03/21 07:56:59;;;;;;;36.10;16.60;;;;;;;3.75;73.46;99618.84;105156;1257;107731;-76
2024/03/21 07:59:26;;;;;;;33.10;17.20;;;;;;;3.92;73.61;99620.15;105514;1251;97987;-75
2024/03/21 08:01:54;;;;;;;36.30;17.40;;;;;;;4.09;73.66;99626.05;105423;1257;98390;-75
2024/03/21 08:04:21;;;;;;;39.10;17.10;;;;;;;4.22;73.45;99623.48;105387;1257;98075;-76
2024/03/21 08:06:47;;;;;;;;;;;;;;;4.35;73.38;99623.31;105427;1256;97940;-76
2024/03/21 08:09:13;;;;;;;38.00;17.50;;;;;;;4.48;73.45;99619.50;105189;1267;97949;-75
2024/03/21 08:11:40;;;;;;;;;;;;;;;4.61;73.31;99621.11;105354;1251;97930;-74
2024/03/21 08:14:07;;;;;;;34.20;17.00;;;;;;;4.70;73.19;99619.69;105379;1266;110035;-76
2024/03/21 08:16:34;;;;;;;33.80;16.70;;;;;;;4.78;73.24;99616.05;105311;1257;98042;-76
2024/03/21 08:19:00;;;;;;;;;;;;;;;4.90;73.21;99620.31;105454;1265;97985;-75
2024/03/21 08:21:26;;;;;;;30.90;15.40;;;;;;;4.98;73.28;99621.73;105467;1257;98037;-76
2024/03/21 08:23:53;;;;;;;;;;;;;;;5.09;73.24;99616.21;105503;1256;97955;-76
2024/03/21 08:26:19;;;;;;;35.40;14.80;;;;;;;5.13;73.10;99616.38;105529;1251;97895;-75
2024/03/21 08:28:46;;;;;;;;;;;;;;;5.20;73.23;99616.63;105458;1257;98063;-75
2024/03/21 08:31:12;;;;;;;33.60;15.60;;;;;;;5.32;73.41;99613.67;105174;1256;97976;-76
2024/03/21 08:33:39;;;;;;;;;;;;;;;5.44;73.29;99613.50;105404;1256;98041;-75
2024/03/21 08:36:06;;;;;;;37.10;16.00;;;;;;;5.56;73.29;99615.84;105284;1257;97988;-74
2024/03/21 08:38:33;;;;;;;30.20;14.90;;;;;;;5.59;73.09;99615.87;105057;1255;107464;-75
2024/03/21 08:40:59;;;;;;;38.00;16.10;;;;;;;5.65;73.12;99618.97;105431;1257;98052;-75
2024/03/21 08:43:26;;;;;;;32.80;17.50;;;;;;;5.64;73.13;99620.94;105409;1256;97955;-75
2024/03/21 08:45:53;;;;;;;;;;;;;;;5.66;72.93;99619.78;105497;1256;98052;-75
2024/03/21 08:48:20;;;;;;;31.80;15.90;;;;;;;5.71;73.15;99619.58;105421;1256;99359;-76
2024/03/21 08:50:47;;;;;;;38.00;19.10;;;;;;;5.77;73.05;99615.98;105171;1254;98895;-76
2024/03/21 08:53:17;;;;;;;29.70;15.90;;;;;;;5.81;72.96;99621.06;105497;1251;97967;-75
2024/03/21 08:55:44;;;;;;;35.60;18.20;;;;;;;5.84;73.12;99622.70;105178;1257;111189;-75
2024/03/21 08:58:11;;;;;;;32.90;15.60;;;;;;;5.89;73.04;99621.61;105413;1256;98007;-76
2024/03/21 09:00:40;;;;;;;;;;;;;;;5.96;72.87;99620.78;105359;1257;98059;-76
2024/03/21 09:03:11;;;;;;;32.80;16.30;;;;;;;6.03;73.06;99621.21;105110;1257;97989;-74
2024/03/21 09:05:37;;;;;;;36.10;17.90;;;;;;;6.06;72.87;99618.42;105371;1254;99280;-76
2024/03/21 09:08:04;;;;;;;36.90;17.30;;;;;;;6.08;72.76;99616.58;105292;1251;98152;-76
2024/03/21 09:10:30;;;;;;;33.50;15.90;;;;;;;6.12;72.78;99617.62;105329;1257;98040;-75
2024/03/21 09:12:57;;;;;;;;;;;;;;;6.13;72.45;99614.05;105476;1251;97943;-75
2024/03/21 09:15:23;;;;;;;33.70;15.90;;;;;;;6.13;72.63;99613.69;105218;1258;97958;-76
2024/03/21 09:17:50;;;;;;;30.40;15.30;;;;;;;6.20;72.52;99610.40;105417;1256;110895;-75
2024/03/21 09:20:18;;;;;;;35.50;16.50;;;;;;;6.26;72.57;99605.02;105464;1265;98527;-75
2024/03/21 09:22:45;;;;;;;27.00;12.90;;;;;;;6.30;72.38;99598.14;105394;1255;98043;-75
2024/03/21 09:25:11;;;;;;;28.60;12.30;;;;;;;6.36;72.64;99596.98;105376;1251;98006;-75
2024/03/21 09:27:39;;;;;;;26.70;11.90;;;;;;;6.41;72.45;99593.73;105400;1264;97965;-75
2024/03/21 09:30:08;;;;;;;23.60;12.30;;;;;;;6.52;72.49;99589.73;105454;1253;98006;-75
2024/03/21 09:32:35;;;;;;;21.60;10.20;;;;;;;6.61;72.53;99587.36;105420;1256;98323;-75
2024/03/21 09:35:01;;;;;;;23.70;12.30;;;;;;;6.72;72.35;99582.08;105476;1256;99293;-76
2024/03/21 09:37:28;;;;;;;25.10;11.60;;;;;;;6.76;72.20;99583.09;105455;1256;97954;-76
2024/03/21 09:39:54;;;;;;;;;;;;;;;6.80;72.04;99582.21;105390;1252;97968;-75
2024/03/21 09:42:22;;;;;;;23.90;11.20;;;;;;;6.78;71.98;99578.58;105563;1256;99209;-75
2024/03/21 09:44:53;;;;;;;23.80;11.10;;;;;;;6.82;72.00;99575.75;105237;1258;106639;-76
2024/03/21 09:47:20;;;;;;;27.50;12.70;;;;;;;6.92;72.01;99572.47;105294;1254;98675;-75
2024/03/21 09:49:47;;;;;;;24.60;11.60;;;;;;;6.94;71.62;99571.27;105461;1251;97942;-75
2024/03/21 09:52:14;;;;;;;19.00;9.50;;;;;;;6.96;71.61;99568.02;105468;1251;98619;-75
2024/03/21 09:54:41;;;;;;;22.30;9.80;;;;;;;6.99;71.44;99567.70;105056;1266;98023;-75
2024/03/21 09:57:14;;;;;;;19.80;9.50;;;;;;;7.08;71.51;99565.16;105363;1267;98293;-75
2024/03/21 09:59:41;;;;;;;18.30;7.90;;;;;;;7.19;71.47;99563.55;105464;1251;98089;-76
2024/03/21 10:02:14;;;;;;;15.40;7.40;;;;;;;7.25;71.37;99562.68;105473;1256;98043;-75
2024/03/21 10:04:46;;;;;;;13.60;7.70;;;;;;;7.31;71.41;99559.73;105384;1254;110466;-75
2024/03/21 10:07:23;;;;;;;21.40;9.00;;;;;;;7.36;71.30;99556.34;105395;1256;97964;-75
2024/03/21 10:09:53;;;;;;;17.00;9.50;;;;;;;7.36;70.88;99554.89;105465;1257;107537;-75
2024/03/21 10:12:20;;;;;;;13.30;8.20;;;;;;;7.40;70.93;99552.42;105462;1263;97930;-75
2024/03/21 10:14:46;;;;;;;16.60;8.60;;;;;;;7.43;70.99;99546.05;105953;1252;98120;-75
2024/03/21 10:17:13;;;;;;;17.50;8.70;;;;;;;7.52;71.00;99545.95;105479;1257;98909;-75
2024/03/21 10:19:41;;;;;;;17.70;8.10;;;;;;;7.60;71.13;99540.27;105187;1256;97922;-75
2024/03/21 10:22:16;;;;;;;13.60;7.80;;;;;;;7.67;70.99;99539.04;105070;1253;99276;-75
2024/03/21 10:24:42;;;;;;;15.20;6.80;;;;;;;7.77;70.77;99534.09;105363;1253;97955;-76
2024/03/21 10:27:13;;;;;;;12.10;7.00;;;;;;;7.84;70.89;99532.99;105262;1264;98108;-75
2024/03/21 10:29:41;;;;;;;13.30;6.10;;;;;;;7.92;70.90;99532.23;105318;1252;111240;-75
2024/03/21 10:32:32;;;;;;;15.70;7.50;;;;;;;7.97;70.75;99532.50;105488;1253;97940;-78
2024/03/21 10:34:58;;;;;;;14.30;7.10;;;;;;;8.03;70.25;99534.98;105274;1252;107307;-74
2024/03/21 10:37:44;;;;;;;14.20;7.80;;;;;;;8.07;70.34;99533.70;105388;1256;97913;-75
2024/03/21 10:40:13;;;;;;;19.70;8.60;;;;;;;8.04;70.18;99537.20;105413;1256;98108;-75
2024/03/21 10:42:51;;;;;;;19.80;8.20;;;;;;;8.02;70.00;99533.23;105601;1253;111072;-73
2024/03/21 10:45:18;;;;;;;16.60;8.20;;;;;;;7.99;70.03;99533.27;105253;1257;98048;-76
2024/03/21 10:47:46;;;;;;;18.00;7.90;;;;;;;8.02;70.00;99528.66;105368;1268;106712;-75
2024/03/21 10:50:21;;;;;;;17.00;8.30;;;;;;;8.07;69.69;99527.70;105332;1251;99286;-75
2024/03/21 10:52:52;;;;;;;15.70;9.00;;;;;;;8.05;69.01;99523.20;105437;1253;97960;-75
2024/03/21 10:55:20;;;;;;;16.20;7.70;;;;;;;8.03;68.84;99522.27;105095;1251;111152;-75
2024/03/21 10:57:51;;;;;;;14.10;7.80;;;;;;;8.08;68.88;99519.86;105336;1257;98039;-73
2024/03/21 11:03:51;;;;;;;17.90;8.60;;;;;;;8.20;68.74;99511.61;102096;1297;636119;-74
2024/03/21 11:06:19;;;;;;;13.20;6.90;;;;;;;8.22;68.85;99507.43;104776;1263;95267;-74
2024/03/21 11:08:54;;;;;;;15.90;8.90;;;;;;;8.25;68.70;99505.35;105214;1256;95286;-75
2024/03/21 11:11:22;;;;;;;12.20;7.60;;;;;;;8.31;68.75;99503.24;105159;1259;108178;-75
2024/03/21 11:13:50;;;;;;;17.10;8.20;;;;;;;8.32;68.44;99507.04;105214;1256;95604;-76
2024/03/21 11:16:18;;;;;;;15.60;8.10;;;;;;;8.28;67.99;99499.69;105410;1252;172035;-76
2024/03/21 11:18:46;;;;;;;16.10;8.40;;;;;;;8.26;67.63;99504.71;105289;1255;95262;-75
2024/03/21 11:21:14;;;;;;;14.90;8.20;;;;;;;8.32;67.85;99500.36;105465;1255;95733;-75
2024/03/21 11:23:43;;;;;;;15.70;7.50;;;;;;;8.40;67.93;99493.68;105232;1255;108474;-74
2024/03/21 11:26:14;;;;;;;12.80;7.30;;;;;;;8.54;67.92;99490.80;105493;1253;95420;-74
2024/03/21 11:28:45;;;;;;;12.40;7.80;;;;;;;8.63;67.84;99488.52;105511;1253;106029;-73